createdAt,value
2019-02-20T00:00:23.279Z,95878.69
2019-02-20T00:02:51.857Z,95883.81
2019-02-20T00:05:20.432Z,95879.70
2019-02-20T00:07:49.019Z,95882.92
2019-02-20T00:10:17.600Z,95884.34
2019-02-20T00:12:46.181Z,95879.28
2019-02-20T00:15:14.763Z,95884.63
2019-02-20T00:17:43.379Z,95889.82
2019-02-20T00:20:12.767Z,95886.27
2019-02-20T00:22:41.355Z,95884.49
2019-02-20T00:25:11.040Z,95885.63
2019-02-20T00:27:39.623Z,95879.98
2019-02-20T00:30:10.721Z,95885.83
2019-02-20T00:32:39.292Z,95885.51
2019-02-20T00:35:08.377Z,95890.47
2019-02-20T00:37:36.996Z,95889.70
2019-02-20T00:40:10.700Z,95885.83
2019-02-20T00:42:39.281Z,95885.47
2019-02-20T00:45:30.349Z,95888.05
2019-02-20T00:48:09.291Z,95889.98
2019-02-20T00:50:39.442Z,95892.17
2019-02-20T00:53:13.424Z,95895.42
2019-02-20T00:55:42.007Z,95887.45
2019-02-20T00:58:11.513Z,95890.25
2019-02-20T01:00:40.093Z,95892.12
2019-02-20T01:03:09.538Z,95894.81
2019-02-20T01:05:38.268Z,95896.70
2019-02-20T01:08:06.915Z,95896.38
2019-02-20T01:10:35.715Z,95907.40
2019-02-20T01:13:04.458Z,95907.39
2019-02-20T01:15:33.103Z,95901.84
2019-02-20T01:18:01.691Z,95897.66
2019-02-20T01:20:30.323Z,95904.42
2019-02-20T01:23:00.121Z,95906.68
2019-02-20T01:25:29.186Z,95905.39
2019-02-20T01:27:57.767Z,95908.94
2019-02-20T01:30:26.347Z,95898.86
2019-02-20T01:32:54.935Z,95906.34
2019-02-20T01:35:23.520Z,95905.94
2019-02-20T01:37:52.095Z,95901.04
2019-02-20T01:40:20.719Z,95908.75
2019-02-20T01:42:49.297Z,95910.70
2019-02-20T01:45:17.920Z,95910.02
2019-02-20T01:47:46.537Z,95903.18
2019-02-20T01:50:15.163Z,95908.33
2019-02-20T01:52:43.747Z,95899.07
2019-02-20T01:55:13.140Z,95905.66
2019-02-20T01:57:41.717Z,95901.78
2019-02-20T02:00:12.649Z,95904.30
2019-02-20T02:02:41.230Z,95904.77
2019-02-20T02:05:15.283Z,95905.32
2019-02-20T02:07:41.184Z,95897.38
2019-02-20T02:10:10.403Z,95894.50
2019-02-20T02:12:38.982Z,95899.06
2019-02-20T02:15:09.313Z,95893.85
2019-02-20T02:17:37.888Z,95890.22
2019-02-20T02:20:08.767Z,95892.14
2019-02-20T02:22:37.384Z,95891.80
2019-02-20T02:25:06.360Z,95883.78
2019-02-20T02:27:34.940Z,95889.12
2019-02-20T02:30:04.516Z,95890.58
2019-02-20T02:32:33.099Z,95890.31
2019-02-20T02:35:01.711Z,95888.30
2019-02-20T02:37:30.288Z,95883.64
2019-02-20T02:39:58.863Z,95878.45
2019-02-20T02:42:27.500Z,95883.78
2019-02-20T02:44:56.174Z,95879.06
2019-02-20T02:47:24.751Z,95883.30
2019-02-20T02:49:53.330Z,95882.86
2019-02-20T02:52:22.077Z,95875.89
2019-02-20T02:54:50.692Z,95874.62
2019-02-20T02:57:19.268Z,95874.19
2019-02-20T02:59:47.918Z,95876.20
2019-02-20T03:02:16.505Z,95876.13
2019-02-20T03:04:45.107Z,95882.86
2019-02-20T03:07:13.687Z,95885.70
2019-02-20T03:09:42.285Z,95879.13
2019-02-20T03:12:11.069Z,95879.30
2019-02-20T03:14:39.666Z,95878.91
2019-02-20T03:17:08.471Z,95876.80
2019-02-20T03:19:37.050Z,95879.77
2019-02-20T03:22:05.631Z,95874.97
2019-02-20T03:24:34.214Z,95878.23
2019-02-20T03:27:02.830Z,95877.30
2019-02-20T03:29:31.411Z,95873.11
2019-02-20T03:31:59.997Z,95875.34
2019-02-20T03:34:28.595Z,95879.78
2019-02-20T03:36:57.162Z,95879.88
2019-02-20T03:39:25.735Z,95881.38
2019-02-20T03:41:54.312Z,95882.34
2019-02-20T03:44:22.894Z,95884.48
2019-02-20T03:46:51.507Z,95880.53
2019-02-20T03:49:20.173Z,95887.36
2019-02-20T03:51:48.750Z,95888.62
2019-02-20T03:54:17.804Z,95885.66
2019-02-20T03:56:46.383Z,95884.08
2019-02-20T03:59:14.991Z,95887.69
2019-02-20T04:01:43.616Z,95886.51
2019-02-20T04:04:12.200Z,95878.80
2019-02-20T04:06:40.833Z,95897.76
2019-02-20T04:09:10.468Z,95891.30
2019-02-20T04:11:39.036Z,95899.86
2019-02-20T04:14:08.365Z,95891.78
2019-02-20T04:16:36.950Z,95898.27
2019-02-20T04:19:05.542Z,95907.27
2019-02-20T04:21:34.122Z,95905.84
2019-02-20T04:24:03.126Z,95902.70
2019-02-20T04:26:31.880Z,95901.89
2019-02-20T04:29:00.512Z,95906.44
2019-02-20T04:31:29.080Z,95905.12
2019-02-20T04:33:57.664Z,95909.25
2019-02-20T04:36:26.247Z,95916.73
2019-02-20T04:38:54.822Z,95915.63
2019-02-20T04:41:23.424Z,95910.30
2019-02-20T04:43:52.054Z,95913.00
2019-02-20T04:46:20.662Z,95912.76
2019-02-20T04:48:49.239Z,95913.05
2019-02-20T04:51:17.865Z,95914.88
2019-02-20T04:53:46.486Z,95913.30
2019-02-20T04:56:15.167Z,95914.39
2019-02-20T04:58:43.951Z,95911.65
2019-02-20T05:01:12.531Z,95913.30
2019-02-20T05:03:41.113Z,95918.20
2019-02-20T05:06:10.233Z,95917.69
2019-02-20T05:08:38.811Z,95913.89
2019-02-20T05:11:07.715Z,95916.47
2019-02-20T05:13:36.297Z,95908.23
2019-02-20T05:16:04.895Z,95911.89
2019-02-20T05:18:33.476Z,95915.56
2019-02-20T05:21:02.125Z,95908.69
2019-02-20T05:23:30.704Z,95912.91
2019-02-20T05:25:59.326Z,95911.11
2019-02-20T05:28:27.908Z,95906.38
2019-02-20T05:30:56.530Z,95907.25
2019-02-20T05:33:25.111Z,95909.64
2019-02-20T05:35:53.710Z,95912.01
2019-02-20T05:38:22.274Z,95914.79
2019-02-20T05:40:50.851Z,95913.86
2019-02-20T05:43:19.437Z,95912.91
2019-02-20T05:45:48.008Z,95914.95
2019-02-20T05:48:16.609Z,95917.84
2019-02-20T05:50:45.187Z,95911.33
2019-02-20T05:53:13.833Z,95914.95
2019-02-20T05:55:42.539Z,95916.97
2019-02-20T05:58:11.532Z,95916.97
2019-02-20T06:00:40.121Z,95915.39
2019-02-20T06:03:09.024Z,95917.95
2019-02-20T06:05:37.605Z,95921.61
2019-02-20T06:08:06.261Z,95924.16
2019-02-20T06:10:34.838Z,95920.77
2019-02-20T06:13:03.430Z,95921.72
2019-02-20T06:15:32.033Z,95922.90
2019-02-20T06:18:00.617Z,95925.91
2019-02-20T06:20:29.200Z,95929.00
2019-02-20T06:22:57.776Z,95928.89
2019-02-20T06:25:26.366Z,95934.00
2019-02-20T06:27:54.944Z,95934.14
2019-02-20T06:30:23.528Z,95937.67
2019-02-20T06:32:52.157Z,95942.41
2019-02-20T06:35:20.735Z,95944.17
2019-02-20T06:37:49.316Z,95949.28
2019-02-20T06:40:17.900Z,95946.87
2019-02-20T06:42:46.561Z,95948.63
2019-02-20T06:45:15.140Z,95960.23
2019-02-20T06:47:43.722Z,95957.36
2019-02-20T06:50:13.255Z,95964.13
2019-02-20T06:52:41.921Z,95969.26
2019-02-20T06:55:12.422Z,95964.16
2019-02-20T06:57:40.991Z,95963.89
2019-02-20T07:00:13.066Z,95976.90
2019-02-20T07:02:41.684Z,95982.00
2019-02-20T07:05:34.492Z,95978.34
2019-02-20T07:08:41.471Z,95983.66
2019-02-20T07:11:32.389Z,95996.81
2019-02-20T07:14:15.903Z,95997.32
2019-02-20T07:17:02.439Z,95994.91
2019-02-20T07:19:46.300Z,95996.85
2019-02-20T07:22:29.899Z,95999.58
2019-02-20T07:25:03.335Z,96004.01
2019-02-20T07:27:46.935Z,96008.26
2019-02-20T07:30:15.528Z,96016.02
2019-02-20T07:32:44.094Z,96015.77
2019-02-20T07:35:12.778Z,96023.28
2019-02-20T07:37:41.365Z,96021.71
2019-02-20T07:40:10.266Z,96023.36
2019-02-20T07:42:38.852Z,96014.87
2019-02-20T07:45:09.285Z,96016.90
2019-02-20T07:47:37.853Z,96010.84
2019-02-20T07:50:09.339Z,96014.75
2019-02-20T07:52:37.919Z,96018.19
2019-02-20T07:55:13.345Z,96018.41
2019-02-20T07:57:37.634Z,96026.52
2019-02-20T08:00:11.744Z,96027.66
2019-02-20T08:02:40.326Z,96026.54
2019-02-20T08:05:09.122Z,96036.21
2019-02-20T08:07:37.700Z,96032.84
2019-02-20T08:10:09.404Z,96035.86
2019-02-20T08:12:37.984Z,96039.81
2019-02-20T08:15:09.073Z,96037.25
2019-02-20T08:17:37.657Z,96034.94
2019-02-20T08:20:08.443Z,96036.09
2019-02-20T08:22:37.021Z,96036.95
2019-02-20T08:25:06.612Z,96039.07
2019-02-20T08:27:35.205Z,96040.42
2019-02-20T08:30:04.290Z,96038.86
2019-02-20T08:32:32.903Z,96042.53
2019-02-20T08:35:01.485Z,96037.58
2019-02-20T08:37:30.110Z,96040.69
2019-02-20T08:39:58.694Z,96035.52
2019-02-20T08:42:27.278Z,96037.00
2019-02-20T08:44:55.917Z,96042.49
2019-02-20T08:47:24.498Z,96039.75
2019-02-20T08:49:54.433Z,96039.26
2019-02-20T08:52:23.134Z,96042.83
2019-02-20T08:54:51.715Z,96044.27
2019-02-20T08:57:20.298Z,96044.27
2019-02-20T08:59:49.081Z,96040.22
2019-02-20T09:02:17.655Z,96040.55
2019-02-20T09:04:46.244Z,96040.88
2019-02-20T09:07:14.818Z,96041.20
2019-02-20T09:09:43.507Z,96039.58
2019-02-20T09:12:12.087Z,96038.28
2019-02-20T09:14:40.663Z,96041.86
2019-02-20T09:17:10.358Z,96044.42
2019-02-20T09:19:38.938Z,96044.92
2019-02-20T09:22:08.985Z,96046.22
2019-02-20T09:24:37.576Z,96043.00
2019-02-20T09:27:06.151Z,96046.03
2019-02-20T09:29:34.733Z,96048.62
2019-02-20T09:32:03.324Z,96053.16
2019-02-20T09:34:31.905Z,96043.11
2019-02-20T09:37:00.492Z,96049.40
2019-02-20T09:39:36.649Z,96049.41
2019-02-20T09:42:06.576Z,96052.80
2019-02-20T09:44:38.356Z,96048.93
2019-02-20T09:47:07.204Z,96057.45
2019-02-20T09:49:35.851Z,96057.62
2019-02-20T09:52:04.431Z,96051.19
2019-02-20T09:54:33.177Z,96057.66
2019-02-20T09:57:01.818Z,96053.76
2019-02-20T09:59:30.779Z,96052.28
2019-02-20T11:00:24.881Z,96048.78
2019-02-20T11:31:02.688Z,96041.61
2019-02-20T11:33:31.256Z,96045.10
2019-02-20T11:35:59.898Z,96040.33
2019-02-20T11:38:28.481Z,96030.91
2019-02-20T11:40:57.068Z,96034.84
2019-02-20T11:43:25.665Z,96029.08
2019-02-20T11:45:54.374Z,96026.93
2019-02-20T11:48:22.959Z,96027.55
2019-02-20T11:50:51.607Z,96025.37
2019-02-20T11:53:20.197Z,96024.83
2019-02-20T11:55:48.789Z,96023.11
2019-02-20T11:58:17.372Z,96019.09
2019-02-20T12:00:45.961Z,96016.87
2019-02-20T12:03:14.585Z,96013.81
2019-02-20T12:05:43.385Z,96010.74
2019-02-20T12:08:11.999Z,96015.13
2019-02-20T12:10:40.682Z,96014.90
2019-02-20T12:13:09.440Z,96008.55
2019-02-20T12:15:38.506Z,96010.98
2019-02-20T12:18:07.978Z,96010.36
2019-02-20T12:20:36.565Z,96011.95
2019-02-20T12:23:05.200Z,96019.00
2019-02-20T12:25:35.444Z,96015.78
2019-02-20T12:28:04.030Z,96005.96
2019-02-20T12:30:32.622Z,96004.23
2019-02-20T12:33:01.205Z,96002.09
2019-02-20T12:35:29.816Z,96004.20
2019-02-20T12:37:58.406Z,95998.73
2019-02-20T12:40:26.996Z,95999.69
2019-02-20T12:45:24.284Z,95992.52
2019-02-20T12:47:52.923Z,95990.31
2019-02-20T12:50:21.526Z,95986.28
2019-02-20T12:56:22.650Z,95985.67
2019-02-20T13:09:40.519Z,95987.25
2019-02-20T13:12:09.760Z,95986.72
2019-02-20T13:14:38.385Z,95979.39
2019-02-20T13:17:06.977Z,95989.70
2019-02-20T13:19:35.572Z,95996.53
2019-02-20T13:22:04.164Z,95989.78
2019-02-20T13:24:32.817Z,95984.94
2019-02-20T13:27:07.649Z,95977.98
2019-02-20T13:29:31.778Z,95977.37
2019-02-20T13:32:00.374Z,95976.23
2019-02-20T13:34:29.002Z,95976.97
2019-02-20T13:36:57.713Z,95975.22
2019-02-20T13:39:26.292Z,95974.55
2019-02-20T13:41:54.897Z,95978.44
2019-02-20T13:44:23.648Z,95971.73
2019-02-20T13:46:52.718Z,95976.52
2019-02-20T13:49:21.350Z,95980.17
2019-02-20T13:51:49.946Z,95971.94
2019-02-20T13:54:18.529Z,95974.09
2019-02-20T13:56:47.179Z,95969.30
2019-02-20T13:59:15.813Z,95966.21
2019-02-20T14:05:43.094Z,95963.80
2019-02-20T14:08:11.964Z,95964.18
2019-02-20T15:18:02.519Z,95950.12
2019-02-20T15:43:31.181Z,95958.17
2019-02-20T15:45:59.778Z,95957.80
2019-02-20T15:48:34.084Z,95953.73
2019-02-20T16:02:04.861Z,95958.63
2019-02-20T16:04:33.451Z,95967.87
2019-02-20T16:07:02.122Z,95966.32
2019-02-20T16:09:32.263Z,95967.06
2019-02-20T16:12:00.861Z,95960.34
2019-02-20T16:14:29.745Z,95965.47
2019-02-20T16:16:58.431Z,95967.30
2019-02-20T16:19:27.031Z,95971.06
2019-02-20T16:21:55.622Z,95975.49
2019-02-20T16:24:24.213Z,95974.27
2019-02-20T16:26:52.806Z,95969.60
2019-02-20T16:29:21.404Z,95969.83
2019-02-20T16:31:50.006Z,95971.57
2019-02-20T16:34:18.597Z,95965.84
2019-02-20T16:36:49.139Z,95973.73
2019-02-20T16:39:17.560Z,95969.97
2019-02-20T16:41:47.224Z,95977.72
2019-02-20T16:44:15.827Z,95979.04
2019-02-20T16:46:44.686Z,95981.06
2019-02-20T16:49:13.486Z,95984.95
2019-02-20T16:51:42.073Z,95990.63
2019-02-20T16:54:10.658Z,95995.12
2019-02-20T16:56:40.249Z,95993.44
2019-02-20T16:59:09.309Z,95997.83
2019-02-20T17:01:37.898Z,95997.89
2019-02-20T17:04:07.255Z,95998.66
2019-02-20T17:06:35.921Z,96000.19
2019-02-20T17:09:05.719Z,96010.45
2019-02-20T17:11:34.342Z,96006.87
2019-02-20T17:14:02.922Z,96003.62
2019-02-20T17:16:31.608Z,96012.52
2019-02-20T17:19:00.570Z,96012.67
2019-02-20T17:21:29.161Z,96018.44
2019-02-20T17:23:57.785Z,96016.52
2019-02-20T17:26:26.433Z,96022.57
2019-02-20T17:28:55.223Z,96020.64
2019-02-20T17:31:23.820Z,96030.84
2019-02-20T17:33:52.457Z,96031.70
2019-02-20T17:36:21.082Z,96036.73
2019-02-20T17:38:49.739Z,96038.94
2019-02-20T17:41:18.330Z,96041.03
2019-02-20T17:43:47.011Z,96040.53
2019-02-20T17:46:15.696Z,96045.66
2019-02-20T17:48:44.293Z,96046.27
2019-02-20T17:51:13.399Z,96049.61
2019-02-20T17:53:41.999Z,96057.05
2019-02-20T17:56:12.671Z,96055.48
2019-02-20T17:58:42.660Z,96059.80
2019-02-20T18:01:12.939Z,96052.60
2019-02-20T18:03:41.555Z,96058.11
2019-02-20T18:06:11.166Z,96067.54
2019-02-20T18:08:39.757Z,96069.65
2019-02-20T18:11:08.950Z,96069.40
2019-02-20T18:13:37.537Z,96072.62
2019-02-20T18:16:07.154Z,96073.84
2019-02-20T18:18:35.745Z,96079.64
2019-02-20T18:21:04.333Z,96082.12
2019-02-20T18:23:32.921Z,96083.63
2019-02-20T18:26:01.563Z,96083.66
2019-02-20T18:28:30.144Z,96091.92
2019-02-20T18:30:58.747Z,96088.70
2019-02-20T18:33:27.325Z,96086.91
2019-02-20T18:35:55.917Z,96094.22
2019-02-20T19:45:00.474Z,96139.92
2019-02-20T19:47:47.210Z,96143.22
2019-02-20T19:50:36.853Z,96152.06
2019-02-20T19:53:20.608Z,96142.17
2019-02-20T19:55:55.103Z,96151.20
2019-02-20T19:58:43.266Z,96150.21
2019-02-20T20:01:34.264Z,96153.33
2019-02-20T20:04:12.113Z,96156.03
2019-02-20T20:06:54.090Z,96159.67
2019-02-20T20:09:28.839Z,96155.81
2019-02-20T20:12:33.875Z,96162.45
2019-02-20T20:15:17.895Z,96159.87
2019-02-20T20:18:01.920Z,96168.88
2019-02-20T20:22:02.548Z,96171.12
2019-02-20T20:24:46.514Z,96175.70
2019-02-20T20:27:33.497Z,96177.73
2019-02-20T20:30:38.447Z,96172.55
2019-02-20T20:33:34.857Z,96172.77
2019-02-20T20:36:18.677Z,96172.23
2019-02-20T20:38:56.709Z,96173.87
2019-02-20T20:41:36.385Z,96176.73
2019-02-20T20:44:36.799Z,96176.09
2019-02-20T20:47:11.413Z,96180.58
2019-02-20T20:49:43.390Z,96177.78
2019-02-20T20:52:14.094Z,96191.66
2019-02-20T20:55:01.430Z,96187.28
2019-02-20T20:57:51.639Z,96185.20
2019-02-20T21:00:28.039Z,96195.41
2019-02-20T21:02:58.321Z,96193.62
2019-02-20T21:05:46.782Z,96192.66
2019-02-20T21:08:20.168Z,96188.26
2019-02-20T21:10:52.925Z,96193.86
2019-02-20T21:13:31.919Z,96193.29
2019-02-20T21:16:35.616Z,96194.95
2019-02-20T21:19:21.558Z,96195.23
2019-02-20T21:22:21.910Z,96199.96
2019-02-20T21:25:14.401Z,96202.17
2019-02-20T21:28:13.155Z,96196.38
2019-02-20T21:30:52.360Z,96196.69
2019-02-20T21:33:53.218Z,96196.68
2019-02-20T21:36:35.890Z,96198.95
2019-02-20T21:39:12.222Z,96197.02
2019-02-20T21:41:42.584Z,96196.72
2019-02-20T21:44:12.756Z,96201.56
2019-02-20T21:47:05.668Z,96201.09
2019-02-20T21:49:44.960Z,96199.30
2019-02-20T21:52:44.544Z,96198.34
2019-02-20T21:55:26.818Z,96198.99
2019-02-20T21:58:09.176Z,96206.74
2019-02-20T22:00:51.192Z,96201.25
2019-02-20T22:03:24.248Z,96204.81
2019-02-20T22:06:24.596Z,96202.87
2019-02-20T22:09:04.188Z,96203.20
2019-02-20T22:11:46.215Z,96205.13
2019-02-20T22:14:25.057Z,96208.20
2019-02-20T22:16:57.764Z,96211.13
2019-02-20T22:19:45.882Z,96213.22
2019-02-20T22:22:49.306Z,96212.89
2019-02-20T22:25:28.847Z,96213.70
2019-02-20T22:28:04.817Z,96222.77
2019-02-20T22:30:51.864Z,96219.38
2019-02-20T22:33:24.666Z,96223.42
2019-02-20T22:35:57.745Z,96225.36
2019-02-20T22:38:55.067Z,96226.81
2019-02-20T22:41:43.442Z,96226.33
2019-02-20T22:44:48.345Z,96230.38
2019-02-20T22:47:45.779Z,96231.67
2019-02-20T22:50:43.390Z,96237.49
2019-02-20T22:53:29.768Z,96240.73
2019-02-20T22:56:13.808Z,96242.31
2019-02-20T22:58:53.059Z,96242.96
2019-02-20T23:01:32.249Z,96252.66
2019-02-20T23:04:26.283Z,96244.41
2019-02-20T23:07:11.451Z,96245.55
2019-02-20T23:09:52.655Z,96245.06
2019-02-20T23:12:37.512Z,96251.69
2019-02-20T23:15:05.815Z,96253.63
2019-02-20T23:17:32.238Z,96244.93
2019-02-20T23:19:58.659Z,96250.78
2019-02-20T23:22:25.272Z,96253.02
2019-02-20T23:24:51.866Z,96249.42
2019-02-20T23:27:18.531Z,96259.81
2019-02-20T23:29:44.949Z,96261.11
2019-02-20T23:32:11.371Z,96260.45
2019-02-20T23:34:37.843Z,96257.03
2019-02-20T23:37:04.266Z,96260.38
2019-02-20T23:39:30.694Z,96260.21
2019-02-20T23:41:57.114Z,96267.27
2019-02-20T23:44:23.681Z,96271.95
2019-02-20T23:46:50.085Z,96265.21
2019-02-20T23:49:16.504Z,96269.73
2019-02-20T23:51:42.928Z,96274.37
2019-02-20T23:54:09.344Z,96278.38
2019-02-20T23:56:36.009Z,96280.96
2019-02-20T23:59:02.434Z,96281.30
